Terminal Aerodrome Forecast
Issued by NWS Spokane, WA

Home | Current Version | Previous Version | Text Only | Print | Product List | Glossary On
Versions: 1 2 3 4 5 6 7 8 9 10 11 12 13 14 15 16 17 18 19 20 21 22 23
000
FTUS46 KOTX 311520 AAB
TAFGEG
TAF AMD
KGEG 311520Z 3115/0112 18005KT 1SM -DZ BR OVC003
      TEMPO 3115/3119 1/2SM FG OVC002
     FM312000 21012KT P6SM -RA BKN050 OVC090
     FM010000 22013G18KT P6SM -RA BKN025 OVC040
     FM010400 21006KT P6SM SCT025 OVC060=

USA.gov is the U.S. government's official web portal to all federal, state and local government web resources and services.